sensor_id;sensor_type;location;lat;lon;timestamp;temperature;humidity
57218;DHT22;43078;52.972;6.482;2023-02-28T00:00:12;4.70;99.90
57218;DHT22;43078;52.972;6.482;2023-02-28T00:02:39;4.70;99.90
57218;DHT22;43078;52.972;6.482;2023-02-28T00:05:06;4.70;99.90
57218;DHT22;43078;52.972;6.482;2023-02-28T00:07:32;4.70;99.90
57218;DHT22;43078;52.972;6.482;2023-02-28T00:09:58;4.70;99.90
57218;DHT22;43078;52.972;6.482;2023-02-28T00:12:24;4.70;99.90
57218;DHT22;43078;52.972;6.482;2023-02-28T00:14:50;4.70;99.90
57218;DHT22;43078;52.972;6.482;2023-02-28T00:17:15;4.70;99.90
57218;DHT22;43078;52.972;6.482;2023-02-28T00:19:49;4.70;99.90
57218;DHT22;43078;52.972;6.482;2023-02-28T00:22:16;4.70;99.90
57218;DHT22;43078;52.972;6.482;2023-02-28T00:24:42;4.70;99.90
57218;DHT22;43078;52.972;6.482;2023-02-28T00:27:08;4.70;99.90
57218;DHT22;43078;52.972;6.482;2023-02-28T00:29:34;4.70;99.90
57218;DHT22;43078;52.972;6.482;2023-02-28T00:32:00;4.70;99.90
57218;DHT22;43078;52.972;6.482;2023-02-28T00:34:26;4.70;99.90
57218;DHT22;43078;52.972;6.482;2023-02-28T00:36:51;4.70;99.90
57218;DHT22;43078;52.972;6.482;2023-02-28T00:39:17;4.70;99.90
57218;DHT22;43078;52.972;6.482;2023-02-28T00:41:43;4.70;99.90
57218;DHT22;43078;52.972;6.482;2023-02-28T00:44:08;4.70;99.90
57218;DHT22;43078;52.972;6.482;2023-02-28T00:46:34;4.70;99.90
57218;DHT22;43078;52.972;6.482;2023-02-28T00:49:00;4.70;99.90
57218;DHT22;43078;52.972;6.482;2023-02-28T00:51:26;4.70;99.90
57218;DHT22;43078;52.972;6.482;2023-02-28T00:53:51;4.70;99.90
57218;DHT22;43078;52.972;6.482;2023-02-28T00:56:17;4.70;99.90
57218;DHT22;43078;52.972;6.482;2023-02-28T00:58:43;4.70;99.90
57218;DHT22;43078;52.972;6.482;2023-02-28T01:01:08;4.70;99.90
57218;DHT22;43078;52.972;6.482;2023-02-28T01:03:34;4.70;99.90
57218;DHT22;43078;52.972;6.482;2023-02-28T01:06:00;4.70;99.90
57218;DHT22;43078;52.972;6.482;2023-02-28T01:08:26;4.70;99.90
57218;DHT22;43078;52.972;6.482;2023-02-28T01:10:52;4.70;99.90
57218;DHT22;43078;52.972;6.482;2023-02-28T01:13:18;4.70;99.90
57218;DHT22;43078;52.972;6.482;2023-02-28T01:15:52;4.70;99.90
57218;DHT22;43078;52.972;6.482;2023-02-28T01:18:20;4.70;99.90
57218;DHT22;43078;52.972;6.482;2023-02-28T01:20:46;4.70;99.90
57218;DHT22;43078;52.972;6.482;2023-02-28T01:23:12;4.70;99.90
57218;DHT22;43078;52.972;6.482;2023-02-28T01:25:37;4.70;99.90
57218;DHT22;43078;52.972;6.482;2023-02-28T01:28:04;4.70;99.90
57218;DHT22;43078;52.972;6.482;2023-02-28T01:30:30;4.70;99.90
57218;DHT22;43078;52.972;6.482;2023-02-28T01:32:56;4.70;99.90
57218;DHT22;43078;52.972;6.482;2023-02-28T01:35:22;4.70;99.90
57218;DHT22;43078;52.972;6.482;2023-02-28T01:37:47;4.70;99.90
57218;DHT22;43078;52.972;6.482;2023-02-28T01:40:13;4.70;99.90
57218;DHT22;43078;52.972;6.482;2023-02-28T01:42:39;4.70;99.90
57218;DHT22;43078;52.972;6.482;2023-02-28T01:45:27;4.70;99.90
57218;DHT22;43078;52.972;6.482;2023-02-28T01:47:57;4.70;99.90
57218;DHT22;43078;52.972;6.482;2023-02-28T01:50:27;4.70;99.90
57218;DHT22;43078;52.972;6.482;2023-02-28T01:53:02;4.70;99.90
57218;DHT22;43078;52.972;6.482;2023-02-28T01:55:30;4.60;99.90
57218;DHT22;43078;52.972;6.482;2023-02-28T01:57:58;4.70;99.90
57218;DHT22;43078;52.972;6.482;2023-02-28T02:00:26;4.70;99.90
57218;DHT22;43078;52.972;6.482;2023-02-28T02:02:58;4.70;99.90
57218;DHT22;43078;52.972;6.482;2023-02-28T02:05:27;4.60;99.90
57218;DHT22;43078;52.972;6.482;2023-02-28T02:08:07;4.70;99.90
57218;DHT22;43078;52.972;6.482;2023-02-28T02:10:39;4.60;99.90
57218;DHT22;43078;52.972;6.482;2023-02-28T02:26:47;4.60;99.90
57218;DHT22;43078;52.972;6.482;2023-02-28T02:34:40;4.60;99.90
57218;DHT22;43078;52.972;6.482;2023-02-28T02:40:52;4.60;99.90
57218;DHT22;43078;52.972;6.482;2023-02-28T02:43:19;4.60;99.90
57218;DHT22;43078;52.972;6.482;2023-02-28T02:45:53;4.60;99.90
57218;DHT22;43078;52.972;6.482;2023-02-28T02:48:29;4.60;99.90
57218;DHT22;43078;52.972;6.482;2023-02-28T02:50:58;4.60;99.90
57218;DHT22;43078;52.972;6.482;2023-02-28T02:53:29;4.60;99.90
57218;DHT22;43078;52.972;6.482;2023-02-28T02:55:56;4.60;99.90
57218;DHT22;43078;52.972;6.482;2023-02-28T02:58:27;4.60;99.90
57218;DHT22;43078;52.972;6.482;2023-02-28T03:00:57;4.60;99.90
57218;DHT22;43078;52.972;6.482;2023-02-28T03:03:24;4.60;99.90
57218;DHT22;43078;52.972;6.482;2023-02-28T03:05:57;4.60;99.90
57218;DHT22;43078;52.972;6.482;2023-02-28T03:08:24;4.50;99.90
57218;DHT22;43078;52.972;6.482;2023-02-28T03:10:51;4.60;99.90
57218;DHT22;43078;52.972;6.482;2023-02-28T03:19:02;4.50;99.90
57218;DHT22;43078;52.972;6.482;2023-02-28T03:24:23;4.50;99.90
57218;DHT22;43078;52.972;6.482;2023-02-28T03:26:57;4.40;99.90
57218;DHT22;43078;52.972;6.482;2023-02-28T03:29:36;4.40;99.90
57218;DHT22;43078;52.972;6.482;2023-02-28T03:32:08;4.40;99.90
57218;DHT22;43078;52.972;6.482;2023-02-28T03:34:50;4.40;99.90
57218;DHT22;43078;52.972;6.482;2023-02-28T03:37:22;4.30;99.90
57218;DHT22;43078;52.972;6.482;2023-02-28T03:39:58;4.30;99.90
57218;DHT22;43078;52.972;6.482;2023-02-28T03:42:28;4.30;99.90
57218;DHT22;43078;52.972;6.482;2023-02-28T03:44:58;4.30;99.90
57218;DHT22;43078;52.972;6.482;2023-02-28T03:47:54;4.30;99.90
57218;DHT22;43078;52.972;6.482;2023-02-28T03:52:53;4.30;99.90
57218;DHT22;43078;52.972;6.482;2023-02-28T03:55:20;4.30;99.90
57218;DHT22;43078;52.972;6.482;2023-02-28T03:57:58;4.30;99.90
57218;DHT22;43078;52.972;6.482;2023-02-28T04:00:30;4.30;99.90
57218;DHT22;43078;52.972;6.482;2023-02-28T04:02:57;4.30;99.90
57218;DHT22;43078;52.972;6.482;2023-02-28T04:05:23;4.30;99.90
57218;DHT22;43078;52.972;6.482;2023-02-28T04:07:49;4.30;99.90
57218;DHT22;43078;52.972;6.482;2023-02-28T04:10:15;4.30;99.90
57218;DHT22;43078;52.972;6.482;2023-02-28T04:12:41;4.30;99.90
57218;DHT22;43078;52.972;6.482;2023-02-28T04:15:07;4.30;99.90
57218;DHT22;43078;52.972;6.482;2023-02-28T04:17:33;4.20;99.90
57218;DHT22;43078;52.972;6.482;2023-02-28T04:19:59;4.30;99.90
57218;DHT22;43078;52.972;6.482;2023-02-28T04:22:24;4.30;99.90
57218;DHT22;43078;52.972;6.482;2023-02-28T04:24:53;4.30;99.90
57218;DHT22;43078;52.972;6.482;2023-02-28T04:27:20;4.20;99.90
57218;DHT22;43078;52.972;6.482;2023-02-28T04:29:46;4.20;99.90
57218;DHT22;43078;52.972;6.482;2023-02-28T04:32:12;4.30;99.90
57218;DHT22;43078;52.972;6.482;2023-02-28T04:34:38;4.30;99.90
57218;DHT22;43078;52.972;6.482;2023-02-28T04:37:06;4.30;99.90
57218;DHT22;43078;52.972;6.482;2023-02-28T04:39:35;4.30;99.90
57218;DHT22;43078;52.972;6.482;2023-02-28T04:42:01;4.30;99.90
57218;DHT22;43078;52.972;6.482;2023-02-28T04:44:26;4.30;99.90
57218;DHT22;43078;52.972;6.482;2023-02-28T04:46:52;4.20;99.90
57218;DHT22;43078;52.972;6.482;2023-02-28T04:49:17;4.30;99.90
57218;DHT22;43078;52.972;6.482;2023-02-28T04:51:43;4.30;99.90
57218;DHT22;43078;52.972;6.482;2023-02-28T04:54:09;4.30;99.90
57218;DHT22;43078;52.972;6.482;2023-02-28T04:56:35;4.20;99.90
57218;DHT22;43078;52.972;6.482;2023-02-28T04:59:00;4.20;99.90
57218;DHT22;43078;52.972;6.482;2023-02-28T05:01:28;4.30;99.90
57218;DHT22;43078;52.972;6.482;2023-02-28T05:03:56;4.20;99.90
57218;DHT22;43078;52.972;6.482;2023-02-28T05:06:24;4.20;99.90
57218;DHT22;43078;52.972;6.482;2023-02-28T05:08:51;4.20;99.90
57218;DHT22;43078;52.972;6.482;2023-02-28T05:11:28;4.20;99.90
57218;DHT22;43078;52.972;6.482;2023-02-28T05:13:55;4.20;99.90
57218;DHT22;43078;52.972;6.482;2023-02-28T05:16:21;4.20;99.90
57218;DHT22;43078;52.972;6.482;2023-02-28T05:18:47;4.20;99.90
57218;DHT22;43078;52.972;6.482;2023-02-28T05:21:31;4.20;99.90
57218;DHT22;43078;52.972;6.482;2023-02-28T05:23:59;4.20;99.90
57218;DHT22;43078;52.972;6.482;2023-02-28T05:26:26;4.20;99.90
57218;DHT22;43078;52.972;6.482;2023-02-28T05:28:52;4.10;99.90
57218;DHT22;43078;52.972;6.482;2023-02-28T05:31:18;4.20;99.90
57218;DHT22;43078;52.972;6.482;2023-02-28T05:33:43;4.20;99.90
57218;DHT22;43078;52.972;6.482;2023-02-28T05:36:09;4.10;99.90
57218;DHT22;43078;52.972;6.482;2023-02-28T05:38:35;4.10;99.90
57218;DHT22;43078;52.972;6.482;2023-02-28T05:41:08;4.10;99.90
57218;DHT22;43078;52.972;6.482;2023-02-28T05:43:34;4.10;99.90
57218;DHT22;43078;52.972;6.482;2023-02-28T05:46:05;4.10;99.90
57218;DHT22;43078;52.972;6.482;2023-02-28T05:48:37;4.10;99.90
57218;DHT22;43078;52.972;6.482;2023-02-28T05:51:04;4.10;99.90
57218;DHT22;43078;52.972;6.482;2023-02-28T05:53:30;4.10;99.90
57218;DHT22;43078;52.972;6.482;2023-02-28T06:03:59;4.10;99.90
57218;DHT22;43078;52.972;6.482;2023-02-28T06:06:26;4.10;99.90
57218;DHT22;43078;52.972;6.482;2023-02-28T06:08:51;4.10;99.90
57218;DHT22;43078;52.972;6.482;2023-02-28T06:11:26;4.10;99.90
57218;DHT22;43078;52.972;6.482;2023-02-28T06:13:59;4.10;99.90
57218;DHT22;43078;52.972;6.482;2023-02-28T06:16:26;4.10;99.90
57218;DHT22;43078;52.972;6.482;2023-02-28T06:19:03;4.00;99.90
57218;DHT22;43078;52.972;6.482;2023-02-28T06:21:35;4.00;99.90
57218;DHT22;43078;52.972;6.482;2023-02-28T06:24:16;4.00;99.90
57218;DHT22;43078;52.972;6.482;2023-02-28T06:26:45;4.00;99.90
57218;DHT22;43078;52.972;6.482;2023-02-28T06:29:23;4.00;99.90
57218;DHT22;43078;52.972;6.482;2023-02-28T06:31:55;4.00;99.90
57218;DHT22;43078;52.972;6.482;2023-02-28T06:34:27;4.00;99.90
57218;DHT22;43078;52.972;6.482;2023-02-28T06:36:58;4.00;99.90
57218;DHT22;43078;52.972;6.482;2023-02-28T06:39:36;4.00;99.90
57218;DHT22;43078;52.972;6.482;2023-02-28T06:42:08;4.00;99.90
57218;DHT22;43078;52.972;6.482;2023-02-28T06:44:43;4.00;99.90
57218;DHT22;43078;52.972;6.482;2023-02-28T06:47:16;4.00;99.90
57218;DHT22;43078;52.972;6.482;2023-02-28T06:49:51;4.00;99.90
57218;DHT22;43078;52.972;6.482;2023-02-28T06:52:26;4.00;99.90
57218;DHT22;43078;52.972;6.482;2023-02-28T06:54:56;4.00;99.90
57218;DHT22;43078;52.972;6.482;2023-02-28T06:57:30;4.00;99.90
57218;DHT22;43078;52.972;6.482;2023-02-28T07:03:11;3.90;99.90
57218;DHT22;43078;52.972;6.482;2023-02-28T07:05:48;3.90;99.90
57218;DHT22;43078;52.972;6.482;2023-02-28T07:08:27;4.00;99.90
57218;DHT22;43078;52.972;6.482;2023-02-28T07:11:02;3.90;99.90
57218;DHT22;43078;52.972;6.482;2023-02-28T07:13:37;3.90;99.90
57218;DHT22;43078;52.972;6.482;2023-02-28T07:16:13;4.00;99.90
57218;DHT22;43078;52.972;6.482;2023-02-28T07:18:54;3.90;99.90
57218;DHT22;43078;52.972;6.482;2023-02-28T07:21:21;3.90;99.90
57218;DHT22;43078;52.972;6.482;2023-02-28T07:23:46;3.90;99.90
57218;DHT22;43078;52.972;6.482;2023-02-28T07:26:14;3.90;99.90
57218;DHT22;43078;52.972;6.482;2023-02-28T07:28:42;3.90;99.90
57218;DHT22;43078;52.972;6.482;2023-02-28T07:31:08;3.90;99.90
57218;DHT22;43078;52.972;6.482;2023-02-28T07:33:34;3.90;99.90
57218;DHT22;43078;52.972;6.482;2023-02-28T07:36:04;3.90;99.90
57218;DHT22;43078;52.972;6.482;2023-02-28T07:38:30;3.90;99.90
57218;DHT22;43078;52.972;6.482;2023-02-28T07:40:58;3.90;99.90
57218;DHT22;43078;52.972;6.482;2023-02-28T07:43:24;3.90;99.90
57218;DHT22;43078;52.972;6.482;2023-02-28T07:45:49;3.90;99.90
57218;DHT22;43078;52.972;6.482;2023-02-28T07:48:15;3.90;99.90
57218;DHT22;43078;52.972;6.482;2023-02-28T07:50:40;3.90;99.90
57218;DHT22;43078;52.972;6.482;2023-02-28T07:53:06;3.90;99.90
57218;DHT22;43078;52.972;6.482;2023-02-28T07:55:32;3.90;99.90
57218;DHT22;43078;52.972;6.482;2023-02-28T07:57:57;3.90;99.90
57218;DHT22;43078;52.972;6.482;2023-02-28T08:00:24;3.90;99.90
57218;DHT22;43078;52.972;6.482;2023-02-28T08:02:49;3.90;99.90
57218;DHT22;43078;52.972;6.482;2023-02-28T08:05:16;3.90;99.90
57218;DHT22;43078;52.972;6.482;2023-02-28T08:07:41;3.90;99.90
57218;DHT22;43078;52.972;6.482;2023-02-28T08:10:07;3.90;99.90
57218;DHT22;43078;52.972;6.482;2023-02-28T08:12:35;3.90;99.90
57218;DHT22;43078;52.972;6.482;2023-02-28T08:15:01;3.90;99.90
57218;DHT22;43078;52.972;6.482;2023-02-28T08:17:26;3.90;99.90
57218;DHT22;43078;52.972;6.482;2023-02-28T08:19:52;3.90;99.90
57218;DHT22;43078;52.972;6.482;2023-02-28T08:22:18;4.00;99.90
57218;DHT22;43078;52.972;6.482;2023-02-28T08:24:43;3.90;99.90
57218;DHT22;43078;52.972;6.482;2023-02-28T08:27:09;4.00;99.90
57218;DHT22;43078;52.972;6.482;2023-02-28T08:29:37;3.90;99.90
57218;DHT22;43078;52.972;6.482;2023-02-28T08:32:04;4.00;99.90
57218;DHT22;43078;52.972;6.482;2023-02-28T08:34:30;4.00;99.90
57218;DHT22;43078;52.972;6.482;2023-02-28T08:36:55;4.00;99.90
57218;DHT22;43078;52.972;6.482;2023-02-28T08:39:21;4.00;99.90
57218;DHT22;43078;52.972;6.482;2023-02-28T08:41:46;4.00;99.90
57218;DHT22;43078;52.972;6.482;2023-02-28T08:44:12;4.10;99.90
57218;DHT22;43078;52.972;6.482;2023-02-28T08:46:38;4.10;99.90
57218;DHT22;43078;52.972;6.482;2023-02-28T08:49:04;4.00;99.90
57218;DHT22;43078;52.972;6.482;2023-02-28T08:51:30;4.10;99.90
57218;DHT22;43078;52.972;6.482;2023-02-28T08:53:59;4.10;99.90
57218;DHT22;43078;52.972;6.482;2023-02-28T08:56:26;4.10;99.90
57218;DHT22;43078;52.972;6.482;2023-02-28T08:58:55;4.10;99.90
57218;DHT22;43078;52.972;6.482;2023-02-28T09:01:23;4.20;99.90
57218;DHT22;43078;52.972;6.482;2023-02-28T09:03:50;4.20;99.90
57218;DHT22;43078;52.972;6.482;2023-02-28T09:06:18;4.20;99.90
57218;DHT22;43078;52.972;6.482;2023-02-28T09:08:44;4.20;99.90
57218;DHT22;43078;52.972;6.482;2023-02-28T09:11:11;4.30;99.90
57218;DHT22;43078;52.972;6.482;2023-02-28T09:13:37;4.30;99.90
57218;DHT22;43078;52.972;6.482;2023-02-28T09:16:04;4.30;99.90
57218;DHT22;43078;52.972;6.482;2023-02-28T09:18:30;4.30;99.90
57218;DHT22;43078;52.972;6.482;2023-02-28T09:20:56;4.40;99.90
57218;DHT22;43078;52.972;6.482;2023-02-28T09:23:23;4.40;99.90
57218;DHT22;43078;52.972;6.482;2023-02-28T09:25:51;4.40;99.90
57218;DHT22;43078;52.972;6.482;2023-02-28T09:28:17;4.50;99.90
57218;DHT22;43078;52.972;6.482;2023-02-28T09:30:48;4.50;99.90
57218;DHT22;43078;52.972;6.482;2023-02-28T09:33:15;4.50;99.90
57218;DHT22;43078;52.972;6.482;2023-02-28T09:35:41;4.60;99.90
57218;DHT22;43078;52.972;6.482;2023-02-28T09:38:08;4.60;99.90
57218;DHT22;43078;52.972;6.482;2023-02-28T09:40:45;4.70;99.90
57218;DHT22;43078;52.972;6.482;2023-02-28T09:43:14;4.70;99.90
57218;DHT22;43078;52.972;6.482;2023-02-28T09:45:42;4.80;99.90
57218;DHT22;43078;52.972;6.482;2023-02-28T09:48:24;4.80;99.90
57218;DHT22;43078;52.972;6.482;2023-02-28T09:51:03;4.90;99.90
57218;DHT22;43078;52.972;6.482;2023-02-28T09:53:31;4.90;99.90
57218;DHT22;43078;52.972;6.482;2023-02-28T09:56:03;4.90;99.90
57218;DHT22;43078;52.972;6.482;2023-02-28T09:58:44;5.00;99.90
57218;DHT22;43078;52.972;6.482;2023-02-28T10:04:09;5.10;99.90
57218;DHT22;43078;52.972;6.482;2023-02-28T10:06:44;5.10;99.90
57218;DHT22;43078;52.972;6.482;2023-02-28T10:09:15;5.20;99.90
57218;DHT22;43078;52.972;6.482;2023-02-28T10:11:44;5.20;99.90
57218;DHT22;43078;52.972;6.482;2023-02-28T10:14:18;5.30;99.90
57218;DHT22;43078;52.972;6.482;2023-02-28T10:17:07;5.30;99.90
57218;DHT22;43078;52.972;6.482;2023-02-28T10:22:19;5.40;99.90
57218;DHT22;43078;52.972;6.482;2023-02-28T10:24:50;5.40;99.90
57218;DHT22;43078;52.972;6.482;2023-02-28T10:27:22;5.50;99.90
57218;DHT22;43078;52.972;6.482;2023-02-28T10:29:50;5.50;99.90
57218;DHT22;43078;52.972;6.482;2023-02-28T10:32:25;5.60;99.90
57218;DHT22;43078;52.972;6.482;2023-02-28T10:37:41;5.70;99.90
57218;DHT22;43078;52.972;6.482;2023-02-28T10:40:30;5.80;99.90
57218;DHT22;43078;52.972;6.482;2023-02-28T10:45:31;5.80;99.90
57218;DHT22;43078;52.972;6.482;2023-02-28T10:50:44;6.00;99.90
57218;DHT22;43078;52.972;6.482;2023-02-28T10:58:29;6.20;99.90
57218;DHT22;43078;52.972;6.482;2023-02-28T11:00:55;6.20;99.90
57218;DHT22;43078;52.972;6.482;2023-02-28T11:03:30;6.30;99.90
57218;DHT22;43078;52.972;6.482;2023-02-28T11:05:56;6.40;99.90
57218;DHT22;43078;52.972;6.482;2023-02-28T11:08:22;6.40;99.90
57218;DHT22;43078;52.972;6.482;2023-02-28T11:10:58;6.40;99.90
57218;DHT22;43078;52.972;6.482;2023-02-28T11:13:36;6.50;99.90
57218;DHT22;43078;52.972;6.482;2023-02-28T11:16:09;6.60;99.90
57218;DHT22;43078;52.972;6.482;2023-02-28T11:21:37;6.70;99.90
57218;DHT22;43078;52.972;6.482;2023-02-28T11:26:50;6.90;99.90
57218;DHT22;43078;52.972;6.482;2023-02-28T11:29:19;6.90;99.90
57218;DHT22;43078;52.972;6.482;2023-02-28T11:34:34;7.10;99.90
57218;DHT22;43078;52.972;6.482;2023-02-28T11:37:01;7.10;99.90
57218;DHT22;43078;52.972;6.482;2023-02-28T11:39:30;7.20;99.90
57218;DHT22;43078;52.972;6.482;2023-02-28T12:10:26;7.90;99.90
57218;DHT22;43078;52.972;6.482;2023-02-28T12:13:20;8.00;99.90
57218;DHT22;43078;52.972;6.482;2023-02-28T12:19:04;8.10;99.90
57218;DHT22;43078;52.972;6.482;2023-02-28T12:27:13;8.20;99.90
57218;DHT22;43078;52.972;6.482;2023-02-28T12:32:38;8.30;99.90
57218;DHT22;43078;52.972;6.482;2023-02-28T12:35:16;8.40;99.90
57218;DHT22;43078;52.972;6.482;2023-02-28T12:40:23;8.50;99.90
57218;DHT22;43078;52.972;6.482;2023-02-28T12:43:04;8.50;99.90
57218;DHT22;43078;52.972;6.482;2023-02-28T12:49:13;8.60;99.90
57218;DHT22;43078;52.972;6.482;2023-02-28T12:51:43;8.70;99.90
57218;DHT22;43078;52.972;6.482;2023-02-28T12:54:19;8.80;99.90
57218;DHT22;43078;52.972;6.482;2023-02-28T12:57:20;8.90;99.90
57218;DHT22;43078;52.972;6.482;2023-02-28T13:00:01;8.90;99.90
57218;DHT22;43078;52.972;6.482;2023-02-28T13:05:29;9.00;99.90
57218;DHT22;43078;52.972;6.482;2023-02-28T13:09:13;9.10;99.90
57218;DHT22;43078;52.972;6.482;2023-02-28T13:11:29;9.10;99.90
57218;DHT22;43078;52.972;6.482;2023-02-28T13:14:04;9.20;99.90
57218;DHT22;43078;52.972;6.482;2023-02-28T13:16:52;9.20;99.90
57218;DHT22;43078;52.972;6.482;2023-02-28T13:19:27;9.20;99.90
57218;DHT22;43078;52.972;6.482;2023-02-28T13:21:55;9.20;99.90
57218;DHT22;43078;52.972;6.482;2023-02-28T13:29:44;9.40;99.90
57218;DHT22;43078;52.972;6.482;2023-02-28T13:32:29;9.40;99.90
57218;DHT22;43078;52.972;6.482;2023-02-28T13:37:43;9.40;99.90
57218;DHT22;43078;52.972;6.482;2023-02-28T13:40:31;9.50;99.90
57218;DHT22;43078;52.972;6.482;2023-02-28T13:43:11;9.50;99.90
57218;DHT22;43078;52.972;6.482;2023-02-28T13:45:36;9.50;99.90
57218;DHT22;43078;52.972;6.482;2023-02-28T13:48:16;9.60;99.90
57218;DHT22;43078;52.972;6.482;2023-02-28T13:50:43;9.60;99.90
57218;DHT22;43078;52.972;6.482;2023-02-28T14:07:02;9.60;99.90
57218;DHT22;43078;52.972;6.482;2023-02-28T14:09:35;9.60;99.90
57218;DHT22;43078;52.972;6.482;2023-02-28T14:15:36;9.70;99.90
57218;DHT22;43078;52.972;6.482;2023-02-28T14:18:17;9.70;99.90
57218;DHT22;43078;52.972;6.482;2023-02-28T14:20:43;9.70;99.90
57218;DHT22;43078;52.972;6.482;2023-02-28T14:26:18;9.80;99.90
57218;DHT22;43078;52.972;6.482;2023-02-28T14:29:09;9.80;99.90
57218;DHT22;43078;52.972;6.482;2023-02-28T14:31:43;9.80;99.90
57218;DHT22;43078;52.972;6.482;2023-02-28T14:34:36;9.80;99.90
57218;DHT22;43078;52.972;6.482;2023-02-28T14:37:03;9.80;99.90
57218;DHT22;43078;52.972;6.482;2023-02-28T14:39:30;9.80;99.90
57218;DHT22;43078;52.972;6.482;2023-02-28T14:41:57;9.80;99.90
57218;DHT22;43078;52.972;6.482;2023-02-28T14:44:28;9.80;99.90
57218;DHT22;43078;52.972;6.482;2023-02-28T14:47:11;9.90;99.90
57218;DHT22;43078;52.972;6.482;2023-02-28T14:49:44;9.90;99.90
57218;DHT22;43078;52.972;6.482;2023-02-28T14:52:24;9.90;99.90
57218;DHT22;43078;52.972;6.482;2023-02-28T14:54:55;10.00;99.90
57218;DHT22;43078;52.972;6.482;2023-02-28T15:00:21;10.00;99.90
57218;DHT22;43078;52.972;6.482;2023-02-28T15:02:47;10.00;99.90
57218;DHT22;43078;52.972;6.482;2023-02-28T15:07:38;10.00;99.90
57218;DHT22;43078;52.972;6.482;2023-02-28T15:10:21;10.10;99.90
57218;DHT22;43078;52.972;6.482;2023-02-28T15:18:14;10.10;99.90
57218;DHT22;43078;52.972;6.482;2023-02-28T15:20:42;10.00;99.90
57218;DHT22;43078;52.972;6.482;2023-02-28T15:23:10;10.00;99.90
57218;DHT22;43078;52.972;6.482;2023-02-28T15:25:36;10.10;99.90
57218;DHT22;43078;52.972;6.482;2023-02-28T15:28:04;10.10;99.90
57218;DHT22;43078;52.972;6.482;2023-02-28T15:30:31;10.10;99.90
57218;DHT22;43078;52.972;6.482;2023-02-28T15:33:05;10.10;99.90
57218;DHT22;43078;52.972;6.482;2023-02-28T15:35:38;10.10;99.90
57218;DHT22;43078;52.972;6.482;2023-02-28T15:38:23;10.10;99.90
57218;DHT22;43078;52.972;6.482;2023-02-28T15:40:52;10.10;99.90
57218;DHT22;43078;52.972;6.482;2023-02-28T15:45:57;10.10;99.90
57218;DHT22;43078;52.972;6.482;2023-02-28T15:48:28;10.10;99.90
57218;DHT22;43078;52.972;6.482;2023-02-28T15:53:52;10.00;99.90
57218;DHT22;43078;52.972;6.482;2023-02-28T15:56:27;10.00;99.90
57218;DHT22;43078;52.972;6.482;2023-02-28T15:59:00;10.00;99.90
57218;DHT22;43078;52.972;6.482;2023-02-28T16:01:34;10.00;99.90
57218;DHT22;43078;52.972;6.482;2023-02-28T16:04:03;10.00;99.90
57218;DHT22;43078;52.972;6.482;2023-02-28T16:08:59;10.00;99.90
57218;DHT22;43078;52.972;6.482;2023-02-28T16:11:25;10.00;99.90
57218;DHT22;43078;52.972;6.482;2023-02-28T16:13:52;10.00;99.90
57218;DHT22;43078;52.972;6.482;2023-02-28T16:16:23;10.00;99.90
57218;DHT22;43078;52.972;6.482;2023-02-28T16:18:50;9.90;99.90
57218;DHT22;43078;52.972;6.482;2023-02-28T16:21:15;9.90;99.90
57218;DHT22;43078;52.972;6.482;2023-02-28T16:23:41;9.80;99.90
57218;DHT22;43078;52.972;6.482;2023-02-28T16:26:08;9.80;99.90
57218;DHT22;43078;52.972;6.482;2023-02-28T16:28:36;9.80;99.90
57218;DHT22;43078;52.972;6.482;2023-02-28T16:31:05;9.80;99.90
57218;DHT22;43078;52.972;6.482;2023-02-28T16:33:32;9.80;99.90
57218;DHT22;43078;52.972;6.482;2023-02-28T16:35:58;9.80;99.90
57218;DHT22;43078;52.972;6.482;2023-02-28T16:38:24;9.70;99.90
57218;DHT22;43078;52.972;6.482;2023-02-28T16:40:51;9.70;99.90
57218;DHT22;43078;52.972;6.482;2023-02-28T16:43:22;9.80;99.90
57218;DHT22;43078;52.972;6.482;2023-02-28T16:45:48;9.70;99.90
57218;DHT22;43078;52.972;6.482;2023-02-28T16:48:15;9.80;99.90
57218;DHT22;43078;52.972;6.482;2023-02-28T16:50:42;9.70;99.90
57218;DHT22;43078;52.972;6.482;2023-02-28T16:53:09;9.70;99.90
57218;DHT22;43078;52.972;6.482;2023-02-28T16:55:35;9.70;99.90
57218;DHT22;43078;52.972;6.482;2023-02-28T16:58:02;9.70;99.90
57218;DHT22;43078;52.972;6.482;2023-02-28T17:00:29;9.70;99.90
57218;DHT22;43078;52.972;6.482;2023-02-28T17:02:56;9.60;99.90
57218;DHT22;43078;52.972;6.482;2023-02-28T17:05:22;9.60;99.90
57218;DHT22;43078;52.972;6.482;2023-02-28T17:07:49;9.60;99.90
57218;DHT22;43078;52.972;6.482;2023-02-28T17:12:45;9.60;99.90
57218;DHT22;43078;52.972;6.482;2023-02-28T17:15:12;9.50;99.90
57218;DHT22;43078;52.972;6.482;2023-02-28T17:17:38;9.50;99.90
57218;DHT22;43078;52.972;6.482;2023-02-28T17:20:05;9.50;99.90
57218;DHT22;43078;52.972;6.482;2023-02-28T17:22:31;9.40;99.90
57218;DHT22;43078;52.972;6.482;2023-02-28T17:24:57;9.40;99.90
57218;DHT22;43078;52.972;6.482;2023-02-28T17:27:24;9.40;99.90
57218;DHT22;43078;52.972;6.482;2023-02-28T17:29:50;9.30;99.90
57218;DHT22;43078;52.972;6.482;2023-02-28T17:32:16;9.30;99.90
57218;DHT22;43078;52.972;6.482;2023-02-28T17:34:42;9.20;99.90
57218;DHT22;43078;52.972;6.482;2023-02-28T17:37:09;9.20;99.90
57218;DHT22;43078;52.972;6.482;2023-02-28T17:39:35;9.10;99.90
57218;DHT22;43078;52.972;6.482;2023-02-28T17:42:00;9.10;99.90
57218;DHT22;43078;52.972;6.482;2023-02-28T17:44:26;9.00;99.90
57218;DHT22;43078;52.972;6.482;2023-02-28T17:46:53;9.00;99.90
57218;DHT22;43078;52.972;6.482;2023-02-28T17:49:19;8.90;99.90
57218;DHT22;43078;52.972;6.482;2023-02-28T17:51:46;8.90;99.90
57218;DHT22;43078;52.972;6.482;2023-02-28T17:54:12;8.80;99.90
57218;DHT22;43078;52.972;6.482;2023-02-28T17:56:39;8.80;99.90
57218;DHT22;43078;52.972;6.482;2023-02-28T17:59:05;8.80;99.90
57218;DHT22;43078;52.972;6.482;2023-02-28T18:01:31;8.70;99.90
57218;DHT22;43078;52.972;6.482;2023-02-28T18:03:56;8.60;99.90
57218;DHT22;43078;52.972;6.482;2023-02-28T18:06:25;8.60;99.90
57218;DHT22;43078;52.972;6.482;2023-02-28T18:08:52;8.50;99.90
57218;DHT22;43078;52.972;6.482;2023-02-28T18:11:19;8.50;99.90
57218;DHT22;43078;52.972;6.482;2023-02-28T18:13:46;8.50;99.90
57218;DHT22;43078;52.972;6.482;2023-02-28T18:16:13;8.40;99.90
57218;DHT22;43078;52.972;6.482;2023-02-28T18:18:39;8.40;99.90
57218;DHT22;43078;52.972;6.482;2023-02-28T18:21:06;8.30;99.90
57218;DHT22;43078;52.972;6.482;2023-02-28T18:23:32;8.30;99.90
57218;DHT22;43078;52.972;6.482;2023-02-28T18:25:57;8.20;99.90
57218;DHT22;43078;52.972;6.482;2023-02-28T18:28:24;8.10;99.90
57218;DHT22;43078;52.972;6.482;2023-02-28T18:30:52;8.10;99.90
57218;DHT22;43078;52.972;6.482;2023-02-28T18:33:18;8.00;99.90
57218;DHT22;43078;52.972;6.482;2023-02-28T18:35:44;8.00;99.90
57218;DHT22;43078;52.972;6.482;2023-02-28T18:38:13;8.00;99.90
57218;DHT22;43078;52.972;6.482;2023-02-28T18:40:40;8.00;99.90
57218;DHT22;43078;52.972;6.482;2023-02-28T18:43:07;7.90;99.90
57218;DHT22;43078;52.972;6.482;2023-02-28T18:45:38;7.90;99.90
57218;DHT22;43078;52.972;6.482;2023-02-28T18:48:04;7.90;99.90
57218;DHT22;43078;52.972;6.482;2023-02-28T18:50:30;7.80;99.90